Capitol Logistics 314


KRFD
Chicago/Rockford International Airport
Rockford, Illinois, US
KAFW
Fort Worth Alliance Airport
Fort Worth, Texas, US

Activity Log

Date Flight Route Aircraft Duration
05/25/2020 CPX314 MZV J87 COODY HITUG TRUUK2 B763 2h 02m
04/13/2020 CPX314 MZV J87 COODY HITUG TRUUK2 B763 2h 18m
02/14/2020 CPX314 MZV J87 COODY HITUG TRUUK2 B763 2h 02m

Route Details

Aircraft Information
Primary: Boeing 767-300BDSF
Backup: Not Available
Route Data
Distance: 676nm
Sched. Duration: 1h 50m
Avg. Duration: 2h 08m (+58m)
Times Flown: 3
Recm'd Route: MZV J87 COODY HITUG TRUUK2
Planned Altitude: 34,000ft
Origin Wx: KRFD 291054Z 20003KT 9SM CLR 15/13 A2995 RMK AO2 SLP141 T01500133 $
Dest. Wx: KAFW 291053Z 34006KT 10SM FEW250 18/16 A3010 RMK AO2 SLP183 T01780156 $
Notes:

Financial History
Total Freight: 323,904lbs
Average Load: 107,968lbs/flt
Fuel Used: 66,258lbs
Avg. Fuel Used: 22,086lbs/flt
Fuel Expense: $49,031
Avg. Fuel Expense: $16,344
Avg. Fuel Cost: $0.74/lbs
Total Gross Income: $459,944
Pilot Pay: $537
Total Expenses: $49,830
Total Revenue: $359,951
Average Revenue: $153,314.56